createdAt,value
2019-03-05T00:02:01.158Z,76.00
2019-03-05T00:04:30.190Z,76.80
2019-03-05T00:06:59.098Z,76.90
2019-03-05T00:09:27.951Z,76.20
2019-03-05T00:11:56.802Z,75.00
2019-03-05T00:14:25.705Z,70.70
2019-03-05T00:16:54.761Z,71.40
2019-03-05T00:19:27.632Z,72.20
2019-03-05T00:21:55.859Z,73.00
2019-03-05T00:24:58.323Z,73.80
2019-03-05T00:27:26.496Z,74.10
2019-03-05T00:30:26.591Z,74.50
2019-03-05T00:33:28.101Z,74.90
2019-03-05T00:36:14.338Z,75.30
2019-03-05T00:38:51.484Z,75.90
2019-03-05T00:41:38.178Z,76.70
2019-03-05T00:44:33.357Z,77.30
2019-03-05T00:47:08.881Z,77.80
2019-03-05T00:49:59.532Z,78.20
2019-03-05T00:52:42.065Z,78.90
2019-03-05T00:55:18.883Z,79.40
2019-03-05T00:57:50.661Z,79.70
2019-03-05T01:00:32.899Z,79.80
2019-03-05T01:03:37.468Z,79.80
2019-03-05T01:06:27.682Z,80.10
2019-03-05T01:09:01.117Z,80.50
2019-03-05T01:11:35.634Z,80.90
2019-03-05T01:14:12.851Z,81.20
2019-03-05T01:16:41.062Z,81.50
2019-03-05T01:19:14.330Z,81.80
2019-03-05T01:21:46.062Z,82.00
2019-03-05T01:24:17.139Z,82.30
2019-03-05T01:26:50.357Z,82.80
2019-03-05T01:29:21.230Z,83.00
2019-03-05T01:32:02.561Z,82.80
2019-03-05T01:34:42.915Z,82.90
2019-03-05T01:37:15.958Z,83.00
2019-03-05T01:40:07.422Z,83.20
2019-03-05T01:42:39.750Z,83.30
2019-03-05T01:45:21.325Z,83.10
2019-03-05T01:48:12.861Z,83.40
2019-03-05T01:50:48.842Z,83.40
2019-03-05T01:53:23.882Z,83.40
2019-03-05T01:56:02.090Z,83.20
2019-03-05T01:58:40.536Z,83.00
2019-03-05T02:01:16.173Z,82.90
2019-03-05T02:03:46.787Z,82.70
2019-03-05T02:06:18.055Z,82.50
2019-03-05T02:09:10.369Z,82.10
2019-03-05T02:18:01.130Z,81.20
2019-03-05T02:20:30.343Z,80.90
2019-03-05T02:23:10.661Z,80.70
2019-03-05T02:25:57.155Z,80.90
2019-03-05T02:28:43.273Z,80.70
2019-03-05T02:31:26.647Z,80.70
2019-03-05T02:34:04.143Z,80.50
2019-03-05T02:36:56.567Z,80.30
2019-03-05T02:39:35.578Z,80.70
2019-03-05T02:42:28.186Z,80.70
2019-03-05T02:45:01.466Z,80.60
2019-03-05T02:47:52.597Z,80.70
2019-03-05T02:50:24.539Z,80.40
2019-03-05T02:53:10.811Z,80.40
2019-03-05T02:55:54.066Z,80.10
2019-03-05T02:58:21.709Z,80.40
2019-03-05T03:00:52.134Z,80.50
2019-03-05T03:03:23.072Z,80.60
2019-03-05T03:05:53.470Z,80.70
2019-03-05T03:08:24.021Z,80.40
2019-03-05T03:10:52.769Z,80.20
2019-03-05T03:13:21.829Z,80.00
2019-03-05T03:15:50.811Z,80.20
2019-03-05T03:18:19.589Z,80.10
2019-03-05T03:20:48.447Z,79.90
2019-03-05T03:23:17.502Z,79.20
2019-03-05T03:25:46.283Z,79.30
2019-03-05T03:28:15.149Z,79.40
2019-03-05T03:30:44.160Z,79.50
2019-03-05T03:33:12.964Z,79.40
2019-03-05T03:35:43.285Z,79.00
2019-03-05T03:38:14.945Z,78.90
2019-03-05T03:40:43.742Z,78.60
2019-03-05T03:43:12.559Z,78.60
2019-03-05T03:45:41.307Z,78.40
2019-03-05T03:48:10.136Z,78.60
2019-03-05T03:50:38.791Z,78.10
2019-03-05T03:53:07.594Z,78.30
2019-03-05T03:55:37.395Z,78.40
2019-03-05T03:58:06.220Z,78.10
2019-03-05T04:00:35.145Z,78.10
2019-03-05T04:03:04.195Z,77.70
2019-03-05T04:06:26.858Z,77.70
2019-03-05T04:18:32.613Z,77.50
2019-03-05T04:21:03.107Z,77.30
2019-03-05T04:23:47.628Z,77.60
2019-03-05T04:26:29.052Z,77.50
2019-03-05T04:29:02.343Z,77.50
2019-03-05T04:31:42.861Z,77.40
2019-03-05T04:34:13.866Z,78.40
2019-03-05T04:36:44.037Z,77.40
2019-03-05T04:39:33.429Z,77.20
2019-03-05T04:42:19.406Z,77.30
2019-03-05T04:44:49.949Z,77.60
2019-03-05T04:47:18.746Z,77.60
2019-03-05T04:50:05.125Z,77.40
2019-03-05T04:52:39.264Z,77.90
2019-03-05T05:01:03.604Z,77.00
2019-03-05T05:03:41.593Z,77.50
2019-03-05T05:06:22.580Z,77.80
2019-03-05T05:08:55.345Z,78.10
2019-03-05T05:11:29.046Z,77.90
2019-03-05T05:14:13.130Z,77.80
2019-03-05T05:16:46.344Z,77.70
2019-03-05T05:22:07.840Z,77.60
2019-03-05T05:24:42.295Z,77.70
2019-03-05T05:27:26.862Z,77.90
2019-03-05T05:30:03.445Z,77.90
2019-03-05T05:37:23.898Z,77.90
2019-03-05T05:38:22.590Z,78.30
2019-03-05T05:41:30.116Z,78.40
2019-03-05T05:47:24.610Z,78.30
2019-03-05T05:59:42.522Z,77.80
2019-03-05T06:03:14.408Z,77.30
2019-03-05T06:06:02.172Z,77.60
2019-03-05T06:11:40.213Z,76.90
2019-03-05T06:14:25.747Z,76.50
2019-03-05T06:17:13.016Z,76.10
2019-03-05T06:19:45.104Z,76.40
2019-03-05T06:22:25.442Z,76.10
2019-03-05T06:24:56.993Z,76.50
2019-03-05T06:27:28.351Z,76.50
2019-03-05T06:30:00.645Z,76.50
2019-03-05T06:32:31.938Z,76.50
2019-03-05T06:35:02.876Z,76.00
2019-03-05T06:37:33.063Z,76.30
2019-03-05T06:40:02.068Z,76.20
2019-03-05T06:42:33.205Z,76.30
2019-03-05T06:45:28.067Z,76.40
2019-03-05T06:51:29.642Z,76.00
2019-03-05T06:53:58.701Z,76.00
2019-03-05T06:56:33.265Z,75.60
2019-03-05T06:59:02.282Z,75.10
2019-03-05T07:01:34.682Z,74.00
2019-03-05T07:04:07.961Z,72.00
2019-03-05T07:06:53.794Z,68.10
2019-03-05T07:09:43.682Z,64.60
2019-03-05T07:12:36.414Z,67.10
2019-03-05T07:15:40.229Z,69.10
2019-03-05T07:18:14.816Z,70.40
2019-03-05T07:21:08.514Z,68.30
2019-03-05T07:23:48.763Z,61.50
2019-03-05T07:26:17.614Z,55.00
2019-03-05T07:28:49.450Z,51.30
2019-03-05T07:31:20.096Z,51.10
2019-03-05T07:33:50.088Z,49.30
2019-03-05T07:36:23.278Z,49.10
2019-03-05T07:38:52.123Z,46.60
2019-03-05T07:41:20.928Z,45.60
2019-03-05T07:43:51.364Z,46.20
2019-03-05T07:46:22.863Z,45.30
2019-03-05T07:48:51.962Z,46.10
2019-03-05T07:51:29.342Z,47.70
2019-03-05T07:53:59.134Z,48.90
2019-03-05T07:56:27.883Z,48.70
2019-03-05T07:58:56.924Z,46.00
2019-03-05T08:01:27.998Z,46.70
2019-03-05T08:03:56.903Z,49.30
2019-03-05T08:06:27.650Z,49.70
2019-03-05T08:09:33.581Z,51.80
2019-03-05T08:12:28.907Z,53.20
2019-03-05T08:15:12.218Z,52.70
2019-03-05T08:17:41.018Z,56.10
2019-03-05T08:20:14.098Z,59.50
2019-03-05T08:22:45.376Z,59.70
2019-03-05T08:25:14.934Z,60.30
2019-03-05T08:27:45.800Z,60.10
2019-03-05T08:30:17.002Z,62.40
2019-03-05T08:32:50.564Z,64.30
2019-03-05T08:35:19.388Z,66.00
2019-03-05T08:37:49.812Z,67.70
2019-03-05T08:40:18.750Z,68.10
2019-03-05T08:42:47.509Z,68.10
2019-03-05T08:45:16.594Z,68.50
2019-03-05T08:47:45.292Z,69.30
2019-03-05T08:50:15.313Z,69.90
2019-03-05T08:52:44.232Z,70.40
2019-03-05T08:55:13.290Z,70.30
2019-03-05T08:57:42.261Z,70.40
2019-03-05T09:00:17.165Z,69.10
2019-03-05T09:02:49.021Z,68.60
2019-03-05T09:05:18.023Z,69.00
2019-03-05T09:07:46.947Z,68.80
2019-03-05T09:10:18.904Z,69.00
2019-03-05T09:12:47.691Z,69.40
2019-03-05T09:15:20.395Z,69.20
2019-03-05T09:17:50.396Z,69.50
2019-03-05T09:20:19.902Z,69.20
2019-03-05T09:22:48.668Z,69.00
2019-03-05T09:25:21.590Z,67.60
2019-03-05T09:27:50.546Z,67.30
2019-03-05T09:30:30.705Z,66.30
2019-03-05T09:32:59.680Z,65.60
2019-03-05T09:35:28.518Z,65.60
2019-03-05T09:37:57.272Z,63.70
2019-03-05T09:40:28.348Z,61.20
2019-03-05T09:42:57.366Z,57.10
2019-03-05T09:45:28.161Z,56.90
2019-03-05T09:47:57.229Z,56.30
2019-03-05T09:50:26.091Z,55.90
2019-03-05T09:52:57.457Z,55.40
2019-03-05T09:55:26.624Z,53.60
2019-03-05T09:58:07.620Z,55.10
2019-03-05T10:00:32.039Z,58.00
2019-03-05T10:03:00.764Z,58.40
2019-03-05T10:05:29.696Z,56.00
2019-03-05T10:07:59.337Z,53.80
2019-03-05T10:10:30.126Z,54.90
2019-03-05T10:13:04.091Z,56.40
2019-03-05T10:15:30.355Z,57.40
2019-03-05T10:17:59.199Z,60.00
2019-03-05T10:20:33.048Z,60.20
2019-03-05T10:25:56.791Z,65.40
2019-03-05T10:28:27.180Z,65.20
2019-03-05T10:30:56.057Z,66.40
2019-03-05T10:33:29.259Z,66.80
2019-03-05T10:35:58.486Z,67.60
2019-03-05T10:38:34.796Z,68.40
2019-03-05T10:41:04.525Z,69.00
2019-03-05T10:43:42.325Z,69.60
2019-03-05T10:46:35.247Z,70.40
2019-03-05T10:49:23.083Z,71.00
2019-03-05T10:51:52.210Z,71.30
2019-03-05T10:54:21.156Z,71.80
2019-03-05T10:56:50.137Z,71.60
2019-03-05T10:59:19.139Z,72.10
2019-03-05T11:01:53.660Z,72.40
2019-03-05T11:04:22.627Z,72.90
2019-03-05T11:06:51.373Z,73.10
2019-03-05T11:09:20.733Z,72.90
2019-03-05T11:11:49.567Z,72.80
2019-03-05T11:14:18.417Z,72.50
2019-03-05T11:16:49.878Z,73.60
2019-03-05T11:19:20.461Z,74.30
2019-03-05T11:21:50.470Z,74.80
2019-03-05T11:24:19.301Z,75.10
2019-03-05T11:26:47.976Z,75.50
2019-03-05T11:29:16.769Z,75.80
2019-03-05T11:31:45.669Z,76.90
2019-03-05T11:34:14.700Z,77.80
2019-03-05T11:36:44.542Z,78.70
2019-03-05T11:39:13.397Z,79.50
2019-03-05T11:41:43.294Z,80.30
2019-03-05T11:44:14.895Z,80.90
2019-03-05T11:46:43.761Z,81.20
2019-03-05T11:49:14.095Z,81.60
2019-03-05T11:51:43.000Z,81.60
2019-03-05T11:54:11.829Z,81.50
2019-03-05T11:56:40.710Z,81.80
2019-03-05T11:59:11.602Z,81.90
2019-03-05T12:01:40.589Z,81.40
2019-03-05T12:04:09.506Z,81.60
2019-03-05T12:06:38.524Z,81.70
2019-03-05T12:09:10.410Z,82.00
2019-03-05T12:11:39.158Z,82.30
2019-03-05T12:14:08.319Z,81.80
2019-03-05T12:16:48.729Z,81.70
2019-03-05T12:19:17.523Z,81.50
2019-03-05T12:21:46.411Z,81.70
2019-03-05T12:24:15.471Z,81.40
2019-03-05T12:26:44.676Z,81.20
2019-03-05T12:29:15.221Z,81.00
2019-03-05T12:31:45.007Z,80.30
2019-03-05T12:34:13.758Z,80.30
2019-03-05T12:36:46.718Z,80.40
2019-03-05T12:39:17.164Z,81.40
2019-03-05T12:41:48.497Z,84.40
2019-03-05T12:44:22.054Z,85.70
2019-03-05T12:46:57.809Z,87.80
2019-03-05T12:49:31.772Z,89.90
2019-03-05T12:52:05.173Z,90.30
2019-03-05T12:54:34.068Z,90.60
2019-03-05T12:57:02.907Z,91.10
2019-03-05T12:59:33.235Z,91.00
2019-03-05T13:02:03.760Z,91.00
2019-03-05T13:04:35.934Z,90.90
2019-03-05T13:07:04.819Z,91.20
2019-03-05T13:09:39.211Z,91.40
2019-03-05T13:12:12.371Z,91.20
2019-03-05T13:14:55.384Z,91.10
2019-03-05T13:17:51.423Z,91.40
2019-03-05T13:20:17.925Z,91.50
2019-03-05T13:22:46.862Z,91.40
2019-03-05T13:25:17.666Z,91.00
2019-03-05T13:27:48.224Z,90.70
2019-03-05T13:30:27.844Z,90.40
2019-03-05T13:33:01.138Z,90.30
2019-03-05T13:35:32.282Z,90.10
2019-03-05T13:38:16.478Z,90.00
2019-03-05T13:40:47.428Z,88.40
2019-03-05T13:43:28.223Z,87.80
2019-03-05T13:46:07.594Z,86.90
2019-03-05T13:48:59.749Z,85.40
2019-03-05T13:51:59.712Z,84.70
2019-03-05T13:54:52.786Z,83.70
2019-03-05T13:57:39.465Z,82.60
2019-03-05T14:00:12.256Z,81.90
2019-03-05T14:03:07.385Z,82.30
2019-03-05T14:05:56.412Z,80.70
2019-03-05T14:08:57.355Z,79.80
2019-03-05T14:11:31.992Z,77.30
2019-03-05T14:14:05.129Z,75.30
2019-03-05T14:16:40.966Z,74.90
2019-03-05T14:19:11.671Z,75.00
2019-03-05T14:21:52.675Z,74.60
2019-03-05T14:24:30.716Z,73.80
2019-03-05T14:27:04.131Z,73.40
2019-03-05T14:29:54.410Z,73.20
2019-03-05T14:32:32.047Z,72.60
2019-03-05T14:35:39.315Z,72.60
2019-03-05T14:38:02.697Z,71.40
2019-03-05T14:40:37.841Z,70.00
2019-03-05T14:43:12.571Z,69.50
2019-03-05T14:45:44.970Z,68.00
2019-03-05T14:48:19.367Z,66.70
2019-03-05T14:52:05.218Z,64.60
2019-03-05T14:53:51.911Z,63.90
2019-03-05T14:56:23.717Z,65.00
2019-03-05T14:59:02.107Z,65.80
2019-03-05T15:01:37.911Z,66.20
2019-03-05T15:04:24.493Z,66.40
2019-03-05T15:06:56.425Z,66.70
2019-03-05T15:09:34.209Z,66.30
2019-03-05T15:12:11.099Z,66.00
2019-03-05T15:14:55.975Z,65.60
2019-03-05T15:17:26.614Z,66.20
2019-03-05T15:19:57.147Z,66.50
2019-03-05T15:22:31.495Z,67.20
2019-03-05T15:25:06.510Z,67.90
2019-03-05T15:27:38.847Z,68.60
2019-03-05T15:30:47.101Z,69.50
2019-03-05T15:33:16.105Z,70.10
2019-03-05T15:35:49.853Z,70.60
2019-03-05T15:38:22.695Z,71.00
2019-03-05T15:40:51.350Z,71.70
2019-03-05T15:43:23.127Z,70.90
2019-03-05T15:45:52.198Z,71.40
2019-03-05T15:48:22.540Z,70.40
2019-03-05T15:50:51.610Z,70.30
2019-03-05T15:53:28.073Z,70.30
2019-03-05T15:56:01.243Z,70.60
2019-03-05T15:58:30.008Z,71.50
2019-03-05T16:01:01.691Z,71.40
2019-03-05T16:03:37.441Z,71.60
2019-03-05T16:06:13.818Z,72.20
2019-03-05T16:08:43.305Z,72.60
2019-03-05T16:11:19.699Z,72.90
2019-03-05T16:13:56.519Z,73.40
2019-03-05T16:16:32.637Z,73.70
2019-03-05T16:19:03.713Z,73.60
2019-03-05T16:21:33.098Z,74.10
2019-03-05T16:24:11.945Z,73.40
2019-03-05T16:26:44.333Z,74.30
2019-03-05T16:29:16.251Z,75.90
2019-03-05T16:31:53.396Z,81.40
2019-03-05T16:34:45.895Z,84.20
2019-03-05T16:37:16.321Z,87.10
2019-03-05T16:39:55.917Z,89.10
2019-03-05T16:42:37.256Z,90.90
2019-03-05T16:45:09.570Z,92.00
2019-03-05T16:47:56.384Z,92.60
2019-03-05T16:50:26.731Z,92.60
2019-03-05T16:53:16.707Z,92.70
2019-03-05T16:56:08.865Z,92.80
2019-03-05T16:58:54.314Z,92.20
2019-03-05T17:01:50.971Z,91.70
2019-03-05T17:04:32.861Z,91.20
2019-03-05T17:07:30.436Z,91.00
2019-03-05T17:10:13.861Z,90.90
2019-03-05T17:12:44.687Z,90.50
2019-03-05T17:15:28.752Z,90.20
2019-03-05T17:17:59.196Z,89.60
2019-03-05T17:20:28.201Z,89.40
2019-03-05T17:22:57.038Z,88.90
2019-03-05T17:25:26.057Z,88.50
2019-03-05T17:27:54.885Z,88.00
2019-03-05T17:30:25.045Z,87.30
2019-03-05T17:32:56.460Z,87.50
2019-03-05T17:35:36.973Z,87.40
2019-03-05T17:38:11.002Z,87.90
2019-03-05T17:40:43.363Z,87.60
2019-03-05T17:43:12.457Z,87.30
2019-03-05T17:45:48.842Z,87.50
2019-03-05T17:48:18.716Z,87.40
2019-03-05T17:50:50.263Z,87.10
2019-03-05T17:53:20.243Z,87.10
2019-03-05T17:55:49.198Z,86.70
2019-03-05T17:58:19.851Z,86.80
2019-03-05T18:00:49.547Z,86.90
2019-03-05T18:03:24.325Z,87.10
2019-03-05T18:06:15.100Z,86.90
2019-03-05T18:08:44.485Z,86.90
2019-03-05T18:14:00.830Z,86.20
2019-03-05T18:16:33.986Z,86.10
2019-03-05T18:19:32.640Z,86.30
2019-03-05T18:22:15.069Z,86.00
2019-03-05T18:24:48.830Z,86.30
2019-03-05T18:27:20.598Z,86.30
2019-03-05T18:29:55.378Z,86.20
2019-03-05T18:32:25.841Z,86.10
2019-03-05T18:35:02.307Z,86.20
2019-03-05T18:37:31.141Z,85.90
2019-03-05T18:40:05.205Z,85.70
2019-03-05T18:42:35.187Z,85.60
2019-03-05T18:45:06.909Z,85.50
2019-03-05T18:47:38.608Z,85.50
2019-03-05T18:50:09.678Z,85.30
2019-03-05T18:52:57.792Z,85.40
2019-03-05T18:55:35.236Z,85.70
2019-03-05T18:58:25.113Z,85.90
2019-03-05T19:00:53.925Z,85.60
2019-03-05T19:03:24.771Z,85.40
2019-03-05T19:05:53.623Z,85.30
2019-03-05T19:08:25.376Z,85.20
2019-03-05T19:10:54.677Z,85.20
2019-03-05T19:13:23.582Z,85.20
2019-03-05T19:15:54.429Z,85.20
2019-03-05T19:18:23.273Z,85.30
2019-03-05T19:20:56.439Z,85.30
2019-03-05T19:23:26.659Z,85.70
2019-03-05T19:26:03.190Z,86.50
2019-03-05T19:28:46.191Z,86.60
2019-03-05T19:31:16.360Z,86.80
2019-03-05T19:33:47.801Z,86.90
2019-03-05T19:36:18.960Z,87.00
2019-03-05T19:38:50.438Z,86.90
2019-03-05T19:41:21.661Z,86.50
2019-03-05T19:43:56.828Z,86.30
2019-03-05T19:46:30.123Z,86.20
2019-03-05T19:49:01.969Z,86.00
2019-03-05T19:51:37.295Z,85.70
2019-03-05T19:54:09.494Z,86.50
2019-03-05T19:56:41.221Z,86.00
2019-03-05T19:59:59.950Z,85.90
2019-03-05T20:01:48.175Z,85.90
2019-03-05T20:04:23.840Z,85.90
2019-03-05T20:06:54.058Z,85.80
2019-03-05T20:09:27.408Z,86.30
2019-03-05T20:12:01.810Z,86.50
2019-03-05T20:14:35.272Z,87.10
2019-03-05T20:17:06.747Z,87.00
2019-03-05T20:19:38.830Z,87.00
2019-03-05T20:22:15.279Z,87.40
2019-03-05T20:24:44.493Z,87.60
2019-03-05T20:27:17.143Z,88.10
2019-03-05T20:29:50.720Z,88.10
2019-03-05T20:32:42.192Z,88.20
2019-03-05T20:40:35.750Z,89.20
2019-03-05T20:43:19.210Z,89.30
2019-03-05T20:45:53.585Z,89.90
2019-03-05T20:48:22.415Z,90.10
2019-03-05T20:50:59.991Z,90.20
2019-03-05T20:53:33.378Z,90.40
2019-03-05T20:56:05.252Z,90.60
2019-03-05T20:58:43.249Z,90.70
2019-03-05T21:01:13.878Z,91.00
2019-03-05T21:03:57.572Z,91.10
2019-03-05T21:06:35.339Z,91.30
2019-03-05T21:09:14.389Z,91.50
2019-03-05T21:12:49.549Z,91.60
2019-03-05T21:14:43.505Z,91.70
2019-03-05T21:17:27.808Z,91.80
2019-03-05T21:23:20.520Z,92.10
2019-03-05T21:26:14.179Z,92.20
2019-03-05T21:28:57.787Z,92.30
2019-03-05T21:31:44.838Z,92.40
2019-03-05T21:34:14.929Z,92.40
2019-03-05T21:36:49.855Z,92.60
2019-03-05T21:39:21.972Z,92.70
2019-03-05T21:41:59.047Z,92.90
2019-03-05T21:47:18.603Z,93.10
2019-03-05T21:49:53.630Z,93.10
2019-03-05T21:52:50.059Z,93.10
2019-03-05T21:55:32.845Z,93.20
2019-03-05T21:58:15.317Z,93.50
2019-03-05T22:00:59.940Z,93.50
2019-03-05T22:04:11.217Z,93.50
2019-03-05T22:06:35.465Z,93.50
2019-03-05T22:09:11.427Z,93.60
2019-03-05T22:11:46.652Z,93.60
2019-03-05T22:14:19.481Z,93.60
2019-03-05T22:16:48.479Z,93.50
2019-03-05T22:19:27.092Z,93.50
2019-03-05T22:22:00.352Z,93.60
2019-03-05T22:24:29.244Z,93.60
2019-03-05T22:29:49.109Z,93.80
2019-03-05T22:32:19.673Z,93.90
2019-03-05T22:34:53.066Z,93.90
2019-03-05T22:37:23.550Z,94.00
2019-03-05T22:39:52.630Z,94.00
2019-03-05T22:42:24.397Z,94.00
2019-03-05T22:44:54.975Z,94.20
2019-03-05T22:47:23.900Z,94.30
2019-03-05T22:49:52.911Z,94.30
2019-03-05T22:52:21.802Z,94.40
2019-03-05T22:54:56.559Z,94.50
2019-03-05T22:57:27.559Z,94.40
2019-03-05T23:00:02.257Z,94.50
2019-03-05T23:02:32.423Z,94.60
2019-03-05T23:05:01.261Z,94.60
2019-03-05T23:07:34.856Z,94.70
2019-03-05T23:10:07.554Z,94.70
2019-03-05T23:12:39.347Z,94.70
2019-03-05T23:15:10.920Z,94.80
2019-03-05T23:17:39.744Z,94.80
2019-03-05T23:20:10.856Z,94.90
2019-03-05T23:22:40.161Z,94.90
2019-03-05T23:25:10.962Z,94.90
2019-03-05T23:27:41.000Z,94.90
2019-03-05T23:30:24.595Z,95.00
2019-03-05T23:33:31.799Z,95.10
2019-03-05T23:36:06.248Z,95.20
2019-03-05T23:38:49.007Z,95.30
2019-03-05T23:41:36.864Z,95.30
2019-03-05T23:44:10.216Z,95.40
2019-03-05T23:46:51.927Z,95.50
2019-03-05T23:49:26.529Z,95.70
2019-03-05T23:52:03.784Z,95.70
2019-03-05T23:54:36.221Z,95.70
2019-03-05T23:57:09.279Z,95.80
2019-03-05T23:59:50.780Z,95.80
